Station: EBLG - 20/07/2019 09:50Z (il y a 32 minutes)
EBLG 200950Z 20008KT 150V230 9999 SCT042 25/15 Q1010 TEMPO 4000 SHRA
Vent du 200º - 8 kt (vent de direction variable de 150º à 230º)
Visibilité > 10 km
Ciel 50% couvert à 4200 pieds
Température: +25ºC - Point de rosée: +15ºC - QNH: 1010 hPa
Temporairement
Visibilité: 4000 m - averses de pluie